Time;durP1;ratioP1;P1;durP2;ratioP2;P2;SDS_P1;SDS_P2;PMS_P1;PMS_P2;Temp;Humidity;BMP_temperature;BMP_pressure;BME280_temperature;BME280_humidity;BME280_pressure;Samples;Min_cycle;Max_cycle;Signal;HPM_P1;HPM_P2
2021/10/08 00:02:17;;;;;;;2.80;1.92;;;16.60;57.10;;;;;;5073475;28;20021;-71
2021/10/08 00:04:43;;;;;;;2.55;2.03;;;16.70;56.90;;;;;;5073248;28;20028;-74
2021/10/08 00:07:08;;;;;;;2.40;1.70;;;16.70;57.00;;;;;;5073185;28;20443;-75
2021/10/08 00:09:34;;;;;;;4.10;2.00;;;16.70;57.00;;;;;;5072946;28;20032;-75
2021/10/08 00:12:00;;;;;;;4.28;2.00;;;16.60;56.90;;;;;;5073301;28;20473;-75
2021/10/08 00:14:27;;;;;;;2.97;2.10;;;16.70;57.20;;;;;;5073320;28;20082;-75
2021/10/08 00:16:53;;;;;;;2.17;1.80;;;16.70;57.30;;;;;;5073255;28;20040;-74
2021/10/08 00:19:19;;;;;;;2.83;2.05;;;16.60;57.50;;;;;;5073179;28;20028;-75
2021/10/08 00:21:45;;;;;;;5.47;2.10;;;16.60;57.70;;;;;;5073272;28;20085;-76
2021/10/08 00:24:11;;;;;;;2.92;1.92;;;16.60;57.20;;;;;;5073489;28;20096;-76
2021/10/08 00:26:40;;;;;;;2.65;1.98;;;16.70;56.90;;;;;;5072808;28;20469;-76
2021/10/08 00:29:07;;;;;;;4.75;2.10;;;16.70;56.80;;;;;;5072939;28;20036;-76
2021/10/08 00:31:32;;;;;;;5.32;2.00;;;16.70;56.90;;;;;;5073008;28;20542;-76
2021/10/08 00:33:58;;;;;;;2.10;1.80;;;16.70;57.30;;;;;;5072739;28;20024;-76
2021/10/08 00:36:24;;;;;;;4.85;2.03;;;16.70;56.60;;;;;;5072999;28;20410;-74
2021/10/08 00:38:50;;;;;;;3.33;2.42;;;16.70;57.00;;;;;;5072202;28;20086;-76
2021/10/08 00:41:15;;;;;;;3.60;2.40;;;16.70;57.30;;;;;;5073064;28;20023;-76
2021/10/08 00:43:41;;;;;;;7.95;2.08;;;16.70;57.20;;;;;;5073262;28;20058;-74
2021/10/08 00:46:07;;;;;;;2.72;2.10;;;16.70;56.70;;;;;;5072860;28;20032;-74
2021/10/08 00:48:32;;;;;;;3.22;2.20;;;16.70;56.50;;;;;;5072757;28;20090;-75
2021/10/08 00:50:58;;;;;;;4.53;2.30;;;16.70;56.70;;;;;;5072840;28;20113;-76
2021/10/08 00:53:24;;;;;;;4.70;2.30;;;16.70;56.90;;;;;;5072615;28;20074;-76
2021/10/08 00:55:51;;;;;;;2.70;2.22;;;16.70;56.90;;;;;;5072924;28;20025;-76
2021/10/08 00:58:19;;;;;;;6.03;2.25;;;16.70;56.80;;;;;;5070831;28;20108;-75
2021/10/08 01:00:47;;;;;;;2.80;2.17;;;16.70;57.00;;;;;;5069986;28;20063;-76
2021/10/08 01:03:14;;;;;;;6.18;2.65;;;16.70;56.90;;;;;;5069822;28;20024;-76
2021/10/08 01:05:41;;;;;;;3.33;2.45;;;16.70;56.80;;;;;;5072158;28;20042;-76
2021/10/08 01:08:07;;;;;;;3.17;2.40;;;16.70;57.00;;;;;;5072864;28;20032;-75
2021/10/08 01:10:36;;;;;;;4.00;2.40;;;16.70;57.10;;;;;;5072669;28;20393;-75
2021/10/08 01:13:04;;;;;;;4.85;2.55;;;16.70;56.60;;;;;;5072209;28;20021;-75
2021/10/08 01:15:30;;;;;;;3.92;2.40;;;16.70;56.50;;;;;;5072389;28;20424;-75
2021/10/08 01:17:56;;;;;;;2.78;2.25;;;16.70;56.80;;;;;;5072245;28;20025;-77
2021/10/08 01:20:23;;;;;;;3.95;2.53;;;16.70;57.20;;;;;;5072094;28;20159;-76
2021/10/08 01:22:48;;;;;;;3.15;2.58;;;16.70;56.00;;;;;;5072574;28;20025;-76
2021/10/08 01:25:15;;;;;;;3.90;2.30;;;16.70;56.10;;;;;;5072352;28;20439;-75
2021/10/08 01:27:42;;;;;;;2.88;2.40;;;16.70;56.40;;;;;;5072418;28;20017;-75
2021/10/08 01:30:09;;;;;;;4.47;2.30;;;16.70;56.30;;;;;;5072464;28;20072;-71
2021/10/08 01:32:35;;;;;;;3.60;2.90;;;16.70;56.60;;;;;;5071974;28;20025;-75
2021/10/08 01:35:02;;;;;;;3.17;2.55;;;16.70;57.40;;;;;;5071985;28;20021;-76
2021/10/08 01:37:28;;;;;;;8.02;2.63;;;16.70;56.70;;;;;;5072472;28;20025;-76
2021/10/08 01:39:54;;;;;;;4.63;2.60;;;16.70;56.90;;;;;;5072135;28;20032;-76
2021/10/08 01:42:20;;;;;;;4.97;2.30;;;16.70;57.10;;;;;;5072436;28;20016;-75
2021/10/08 01:44:46;;;;;;;4.18;2.42;;;16.70;56.70;;;;;;5071954;28;20098;-73
2021/10/08 01:47:12;;;;;;;3.67;2.70;;;16.70;56.70;;;;;;5072227;28;20499;-74
2021/10/08 01:49:37;;;;;;;4.43;2.72;;;16.70;56.90;;;;;;5072185;28;20082;-74
2021/10/08 01:52:05;;;;;;;3.45;2.60;;;16.70;57.00;;;;;;5075559;28;20058;-75
2021/10/08 01:54:31;;;;;;;3.90;2.50;;;16.70;57.30;;;;;;5076117;28;20481;-75
2021/10/08 01:56:58;;;;;;;4.43;2.47;;;16.70;56.50;;;;;;5076055;28;20109;-74
2021/10/08 01:59:24;;;;;;;4.20;2.83;;;16.70;56.50;;;;;;5075287;28;20035;-74
2021/10/08 02:01:50;;;;;;;6.30;2.78;;;16.70;56.80;;;;;;5075584;28;20025;-75
2021/10/08 02:04:15;;;;;;;4.43;2.40;;;16.70;56.70;;;;;;5075749;28;20020;-75
2021/10/08 02:06:41;;;;;;;3.47;2.42;;;16.80;56.50;;;;;;5075941;28;20032;-76
2021/10/08 02:09:10;;;;;;;5.07;2.58;;;16.70;56.80;;;;;;5075395;28;20105;-76
2021/10/08 02:11:36;;;;;;;5.70;2.58;;;16.70;57.10;;;;;;5075750;28;20035;-75
2021/10/08 02:14:03;;;;;;;4.53;2.30;;;16.70;57.10;;;;;;5075529;28;20029;-69
2021/10/08 02:16:28;;;;;;;2.55;2.35;;;16.70;57.10;;;;;;5075490;28;20031;-76
2021/10/08 02:18:56;;;;;;;3.20;2.47;;;16.70;57.20;;;;;;5075485;28;20028;-76
2021/10/08 02:21:23;;;;;;;3.83;2.60;;;16.70;57.50;;;;;;5075568;28;20032;-76
2021/10/08 02:23:49;;;;;;;3.55;2.40;;;16.70;57.10;;;;;;5075239;28;20056;-74
2021/10/08 02:26:15;;;;;;;6.40;2.60;;;16.70;57.20;;;;;;5075331;28;20028;-76
2021/10/08 02:28:41;;;;;;;4.60;2.47;;;16.70;57.20;;;;;;5075758;28;20043;-75
2021/10/08 02:31:08;;;;;;;3.65;2.55;;;16.70;57.20;;;;;;5075066;28;20128;-74
2021/10/08 02:33:34;;;;;;;4.32;2.53;;;16.70;57.30;;;;;;5075180;28;20031;-76
2021/10/08 02:36:01;;;;;;;5.72;2.60;;;16.70;57.40;;;;;;5075118;28;20374;-76
2021/10/08 02:38:28;;;;;;;5.65;2.53;;;16.70;57.20;;;;;;5075371;28;20056;-76
2021/10/08 02:40:54;;;;;;;5.95;2.72;;;16.70;57.50;;;;;;5075074;28;20428;-75
2021/10/08 02:43:20;;;;;;;3.50;2.63;;;16.70;57.10;;;;;;5074940;28;20377;-76
2021/10/08 02:45:46;;;;;;;4.45;2.92;;;16.70;57.30;;;;;;5075034;28;20092;-76
2021/10/08 02:48:12;;;;;;;4.30;2.80;;;16.70;57.60;;;;;;5075062;28;20040;-75
2021/10/08 02:50:37;;;;;;;3.83;2.42;;;16.60;57.50;;;;;;5074820;28;20068;-77
2021/10/08 02:53:03;;;;;;;3.42;2.47;;;16.70;57.70;;;;;;5074742;28;20024;-76
2021/10/08 02:55:29;;;;;;;5.07;2.60;;;16.60;57.80;;;;;;5074862;28;20021;-75
2021/10/08 02:57:55;;;;;;;3.03;2.47;;;16.60;57.80;;;;;;5074760;28;20024;-75
2021/10/08 03:00:20;;;;;;;2.85;2.53;;;16.60;57.60;;;;;;5074635;28;20029;-76
2021/10/08 03:02:47;;;;;;;3.22;2.50;;;16.60;57.50;;;;;;5074000;28;20036;-75
2021/10/08 03:05:12;;;;;;;3.88;2.53;;;16.60;57.90;;;;;;5074693;28;20449;-76
2021/10/08 03:07:38;;;;;;;4.75;2.40;;;16.60;57.80;;;;;;5074608;28;20055;-76
2021/10/08 03:10:07;;;;;;;3.42;2.60;;;16.60;57.80;;;;;;5073029;28;20071;-76
2021/10/08 03:12:33;;;;;;;3.30;2.67;;;16.60;58.20;;;;;;5074484;28;20099;-73
2021/10/08 03:15:00;;;;;;;3.95;2.42;;;16.60;58.20;;;;;;5074473;28;20135;-76
2021/10/08 03:17:26;;;;;;;3.65;2.50;;;16.60;58.30;;;;;;5074554;28;20029;-75
2021/10/08 03:19:51;;;;;;;5.40;2.90;;;16.60;58.40;;;;;;5074200;28;20025;-75
2021/10/08 03:22:17;;;;;;;4.78;2.47;;;16.50;58.40;;;;;;5074419;28;20028;-75
2021/10/08 03:24:43;;;;;;;4.57;2.55;;;16.50;58.60;;;;;;5074245;28;20099;-76
2021/10/08 03:27:09;;;;;;;3.38;2.53;;;16.50;58.20;;;;;;5074127;28;20105;-76
2021/10/08 03:29:35;;;;;;;3.97;2.78;;;16.50;58.00;;;;;;5073975;28;20040;-76
2021/10/08 03:32:01;;;;;;;6.68;3.10;;;16.50;58.20;;;;;;5073797;28;20047;-75
2021/10/08 03:34:26;;;;;;;4.05;2.60;;;16.50;58.50;;;;;;5074027;28;20115;-76
2021/10/08 03:36:55;;;;;;;5.32;2.88;;;16.50;58.10;;;;;;5074038;28;20527;-76
2021/10/08 03:39:23;;;;;;;4.32;2.80;;;16.50;58.20;;;;;;5073923;28;20477;-76
2021/10/08 03:41:51;;;;;;;5.85;2.65;;;16.50;58.20;;;;;;5074145;28;20388;-76
2021/10/08 03:44:17;;;;;;;4.32;2.60;;;16.50;57.90;;;;;;5073694;28;20027;-76
2021/10/08 03:46:46;;;;;;;3.63;2.35;;;16.50;57.30;;;;;;5073731;28;20043;-76
2021/10/08 03:49:15;;;;;;;4.65;3.20;;;16.50;57.40;;;;;;5073535;28;20044;-76
2021/10/08 03:51:43;;;;;;;6.15;2.58;;;16.60;57.90;;;;;;5073628;28;20035;-76
2021/10/08 03:54:09;;;;;;;4.30;2.50;;;16.60;57.70;;;;;;5073605;28;20016;-75
2021/10/08 03:56:35;;;;;;;4.20;2.00;;;16.60;57.70;;;;;;5073745;28;20096;-76
2021/10/08 03:59:01;;;;;;;7.82;2.58;;;16.60;57.20;;;;;;5073538;28;20113;-76
2021/10/08 04:01:27;;;;;;;5.13;2.58;;;16.60;57.10;;;;;;5073338;28;20039;-76
2021/10/08 04:03:53;;;;;;;3.65;2.60;;;16.60;57.20;;;;;;5073178;28;20029;-76
2021/10/08 04:06:19;;;;;;;6.53;3.03;;;16.60;57.60;;;;;;5073307;28;20452;-76
2021/10/08 04:08:45;;;;;;;4.10;2.58;;;16.60;57.40;;;;;;5072969;28;20025;-76
2021/10/08 04:11:10;;;;;;;4.38;2.90;;;16.60;57.20;;;;;;5073267;28;20074;-75
2021/10/08 04:13:37;;;;;;;3.38;2.47;;;16.60;57.00;;;;;;5073174;28;20029;-77
2021/10/08 04:16:03;;;;;;;6.72;2.90;;;16.70;57.00;;;;;;5073336;28;20027;-76
2021/10/08 04:18:30;;;;;;;4.65;2.40;;;16.60;56.80;;;;;;5073327;28;20020;-71
2021/10/08 04:20:56;;;;;;;3.58;2.47;;;16.60;57.10;;;;;;5073092;28;20021;-75
2021/10/08 04:23:22;;;;;;;5.28;2.78;;;16.70;57.00;;;;;;5073178;28;20099;-71
2021/10/08 04:25:48;;;;;;;5.60;2.67;;;16.60;57.10;;;;;;5073147;28;20406;-76
2021/10/08 04:28:14;;;;;;;5.95;2.65;;;16.60;57.10;;;;;;5072891;28;20082;-75
2021/10/08 04:30:40;;;;;;;4.63;2.42;;;16.60;57.20;;;;;;5072400;28;20056;-76
2021/10/08 04:33:20;;;;;;;3.60;2.38;;;16.60;57.00;;;;;;5072832;28;20020;-75
2021/10/08 04:35:46;;;;;;;4.90;2.30;;;16.70;57.00;;;;;;5073011;28;20032;-76
2021/10/08 04:38:12;;;;;;;3.92;2.40;;;16.60;57.10;;;;;;5072938;28;20027;-75
2021/10/08 04:40:38;;;;;;;3.95;2.50;;;16.60;57.00;;;;;;5073157;28;20028;-73
2021/10/08 04:43:04;;;;;;;4.63;2.42;;;16.60;57.00;;;;;;5072602;28;20381;-76
2021/10/08 04:45:30;;;;;;;5.40;2.22;;;16.60;57.10;;;;;;5071467;28;20029;-74
2021/10/08 04:47:57;;;;;;;3.30;2.38;;;16.60;57.30;;;;;;5072592;28;20028;-76
2021/10/08 04:50:23;;;;;;;4.00;2.50;;;16.60;57.50;;;;;;5072755;28;20062;-73
2021/10/08 04:52:49;;;;;;;3.70;2.50;;;16.60;57.50;;;;;;5072786;28;20067;-76
2021/10/08 04:55:15;;;;;;;3.88;2.10;;;16.60;57.30;;;;;;5072514;28;20101;-74
2021/10/08 04:57:42;;;;;;;6.95;2.72;;;16.60;57.90;;;;;;5072776;28;20021;-76
2021/10/08 05:00:08;;;;;;;5.00;2.10;;;16.60;57.40;;;;;;5071835;28;20035;-70
2021/10/08 05:02:35;;;;;;;2.60;2.00;;;16.60;57.20;;;;;;5072717;28;20025;-75
2021/10/08 05:05:00;;;;;;;4.15;2.38;;;16.70;57.10;;;;;;5072800;28;20100;-77
2021/10/08 05:07:26;;;;;;;3.28;2.20;;;16.60;56.70;;;;;;5071749;28;20438;-75
2021/10/08 05:09:52;;;;;;;3.70;2.10;;;16.60;57.00;;;;;;5072492;28;20389;-72
2021/10/08 05:12:17;;;;;;;2.70;2.40;;;16.60;57.30;;;;;;5072244;28;20032;-76
2021/10/08 05:14:43;;;;;;;3.75;2.25;;;16.70;57.10;;;;;;5072372;28;20024;-74
2021/10/08 05:17:09;;;;;;;4.90;1.80;;;16.60;57.20;;;;;;5072510;28;20078;-76
2021/10/08 05:19:35;;;;;;;4.75;1.85;;;16.60;56.90;;;;;;5072278;28;20050;-75
2021/10/08 05:22:01;;;;;;;5.10;2.00;;;16.60;57.00;;;;;;5072380;28;20029;-74
2021/10/08 05:24:27;;;;;;;3.63;2.13;;;16.60;57.20;;;;;;5072683;28;20431;-74
2021/10/08 05:26:53;;;;;;;2.47;1.73;;;16.60;57.50;;;;;;5076165;28;20028;-76
2021/10/08 05:29:19;;;;;;;2.53;1.90;;;16.60;57.50;;;;;;5076360;28;20040;-76
2021/10/08 05:31:45;;;;;;;2.30;1.80;;;16.60;57.30;;;;;;5076090;28;20119;-75
2021/10/08 05:34:11;;;;;;;3.90;1.88;;;16.60;57.50;;;;;;5076270;28;20108;-75
2021/10/08 05:36:37;;;;;;;4.93;1.77;;;16.60;57.00;;;;;;5076210;28;20048;-75
2021/10/08 05:39:04;;;;;;;5.50;1.90;;;16.70;56.90;;;;;;5076254;28;20032;-75
2021/10/08 05:41:30;;;;;;;6.47;1.75;;;16.60;57.10;;;;;;5076431;28;20032;-76
2021/10/08 05:43:56;;;;;;;4.45;1.58;;;16.70;56.60;;;;;;5077112;28;20062;-75
2021/10/08 05:46:21;;;;;;;6.05;1.80;;;16.70;56.60;;;;;;5075546;28;20028;-74
2021/10/08 05:48:47;;;;;;;2.75;1.50;;;16.70;56.50;;;;;;5075840;28;20039;-76
2021/10/08 05:51:13;;;;;;;2.95;1.60;;;16.80;56.50;;;;;;5075988;28;20031;-75
2021/10/08 05:53:39;;;;;;;2.78;1.70;;;16.80;56.80;;;;;;5076080;28;20025;-75
2021/10/08 05:56:04;;;;;;;2.85;1.63;;;16.70;56.90;;;;;;5076033;28;20130;-76
2021/10/08 05:58:30;;;;;;;3.95;2.10;;;16.70;57.10;;;;;;5075935;28;20067;-76
2021/10/08 06:00:56;;;;;;;3.92;1.80;;;16.70;57.20;;;;;;5075718;28;20430;-76
2021/10/08 06:03:22;;;;;;;2.67;1.85;;;16.70;56.90;;;;;;5075647;28;20481;-75
2021/10/08 06:05:47;;;;;;;3.75;1.88;;;16.70;57.00;;;;;;5075918;28;20055;-76
2021/10/08 06:08:13;;;;;;;13.68;1.70;;;16.70;57.10;;;;;;5075711;28;20428;-76
2021/10/08 06:10:40;;;;;;;2.80;1.55;;;16.70;57.50;;;;;;5075391;28;20070;-76
2021/10/08 06:13:06;;;;;;;1.98;1.77;;;16.80;56.60;;;;;;5075736;28;20052;-77
2021/10/08 06:15:32;;;;;;;2.63;1.60;;;16.80;56.60;;;;;;5075542;28;20040;-76
2021/10/08 06:17:57;;;;;;;3.05;1.52;;;16.80;57.10;;;;;;5075168;28;20033;-76
2021/10/08 06:20:25;;;;;;;2.08;1.50;;;16.80;57.00;;;;;;5074660;28;20103;-75
2021/10/08 06:22:51;;;;;;;5.05;1.67;;;16.80;56.90;;;;;;5074692;28;20104;-78
2021/10/08 06:25:19;;;;;;;2.35;1.60;;;16.80;56.60;;;;;;5074816;28;20021;-74
2021/10/08 06:27:46;;;;;;;2.95;1.65;;;16.80;56.30;;;;;;5074647;28;20362;-74
2021/10/08 06:30:13;;;;;;;2.70;1.50;;;16.80;56.40;;;;;;5073830;28;20060;-75
2021/10/08 06:32:39;;;;;;;1.52;1.25;;;16.80;55.90;;;;;;5074774;28;20025;-76
2021/10/08 06:35:05;;;;;;;2.90;1.60;;;16.90;55.40;;;;;;5074882;28;20036;-76
2021/10/08 06:37:31;;;;;;;2.30;1.65;;;16.90;55.40;;;;;;5073632;28;20025;-75
2021/10/08 06:39:57;;;;;;;3.83;1.50;;;16.90;55.40;;;;;;5074733;28;20396;-76
2021/10/08 06:42:26;;;;;;;2.15;1.50;;;16.90;55.40;;;;;;5074836;28;20024;-76
2021/10/08 06:44:53;;;;;;;4.32;1.67;;;16.90;55.70;;;;;;5073239;28;20433;-76
2021/10/08 06:47:19;;;;;;;3.63;1.90;;;16.90;56.20;;;;;;5059120;28;20060;-75
2021/10/08 06:49:45;;;;;;;5.70;1.95;;;16.80;56.00;;;;;;5054647;28;20484;-76
2021/10/08 06:52:10;;;;;;;3.08;1.70;;;16.90;56.10;;;;;;5054644;28;20029;-75
2021/10/08 06:54:36;;;;;;;3.28;1.80;;;16.90;56.10;;;;;;5054777;28;20025;-76
2021/10/08 06:57:02;;;;;;;6.32;2.17;;;16.90;55.90;;;;;;5054540;28;20029;-75
2021/10/08 06:59:28;;;;;;;3.30;2.30;;;16.90;56.10;;;;;;5054286;28;20070;-75
2021/10/08 07:01:54;;;;;;;3.42;2.25;;;16.90;56.10;;;;;;5054634;28;20025;-75
2021/10/08 07:04:20;;;;;;;18.00;2.58;;;16.90;55.90;;;;;;5054555;28;20032;-75
2021/10/08 07:06:45;;;;;;;6.18;2.38;;;16.90;56.30;;;;;;5054374;28;20021;-75
2021/10/08 07:09:11;;;;;;;5.95;2.45;;;16.90;56.30;;;;;;5054223;28;20033;-70
2021/10/08 07:11:37;;;;;;;6.00;2.75;;;16.80;56.40;;;;;;5053991;28;20393;-77
2021/10/08 07:14:02;;;;;;;3.33;2.70;;;16.80;56.50;;;;;;5054013;28;20393;-75
2021/10/08 07:16:28;;;;;;;4.47;2.65;;;16.80;56.50;;;;;;5054234;28;20061;-76
2021/10/08 07:18:56;;;;;;;4.97;2.80;;;16.80;56.30;;;;;;5054111;28;20389;-76
2021/10/08 07:21:23;;;;;;;4.65;2.42;;;16.90;55.40;;;;;;5054220;28;20089;-76
2021/10/08 07:23:49;;;;;;;5.50;2.70;;;16.90;55.40;;;;;;5054285;28;20033;-76
2021/10/08 07:26:16;;;;;;;5.38;2.60;;;16.90;56.00;;;;;;5054052;28;20392;-72
2021/10/08 07:28:43;;;;;;;8.73;3.25;;;16.90;55.00;;;;;;5053812;28;20125;-76
2021/10/08 07:31:09;;;;;;;5.55;3.00;;;16.90;55.30;;;;;;5053740;28;20052;-78
2021/10/08 07:33:36;;;;;;;6.75;2.80;;;16.90;55.20;;;;;;5054202;28;20484;-77
2021/10/08 07:36:03;;;;;;;7.43;3.55;;;16.90;55.20;;;;;;5053924;28;20021;-76
2021/10/08 07:38:28;;;;;;;6.63;3.25;;;16.90;54.80;;;;;;5053997;28;20044;-76
2021/10/08 07:40:54;;;;;;;6.13;3.45;;;16.90;54.90;;;;;;5053902;28;20518;-75
2021/10/08 07:43:20;;;;;;;6.70;3.45;;;16.90;55.50;;;;;;5053379;28;20028;-76
2021/10/08 07:45:45;;;;;;;8.48;3.50;;;16.90;55.30;;;;;;5052586;28;20029;-75
2021/10/08 07:48:11;;;;;;;7.85;3.60;;;16.90;55.60;;;;;;5053014;28;20028;-75
2021/10/08 07:50:37;;;;;;;10.07;3.70;;;16.90;54.80;;;;;;5052275;28;20040;-74
2021/10/08 07:53:03;;;;;;;6.65;3.72;;;16.90;54.80;;;;;;5052939;28;20048;-75
2021/10/08 07:55:29;;;;;;;9.70;4.15;;;16.90;54.50;;;;;;5053702;28;20461;-77
2021/10/08 07:57:55;;;;;;;9.48;3.95;;;16.90;54.70;;;;;;5052043;28;20029;-76
2021/10/08 08:00:21;;;;;;;10.25;3.80;;;16.90;54.80;;;;;;5053606;28;20033;-76
2021/10/08 08:02:46;;;;;;;6.68;3.50;;;16.90;55.80;;;;;;5053483;28;20492;-78
2021/10/08 08:05:12;;;;;;;17.20;7.18;;;16.90;54.40;;;;;;5053330;28;20036;-76
2021/10/08 08:07:39;;;;;;;13.63;4.32;;;16.90;54.60;;;;;;5053409;28;20033;-75
2021/10/08 08:10:08;;;;;;;5.28;3.53;;;16.90;55.00;;;;;;5052904;28;20040;-75
2021/10/08 08:12:34;;;;;;;8.48;3.60;;;16.90;55.20;;;;;;5053182;28;20363;-75
2021/10/08 08:14:59;;;;;;;9.60;3.33;;;16.90;54.70;;;;;;5051708;28;20079;-75
2021/10/08 08:17:25;;;;;;;6.63;3.97;;;16.90;54.30;;;;;;5053146;28;20389;-74
2021/10/08 08:19:51;;;;;;;12.02;4.30;;;16.90;54.10;;;;;;5053111;28;20029;-76
2021/10/08 08:22:16;;;;;;;20.50;5.07;;;16.90;54.60;;;;;;5053253;28;20120;-75
2021/10/08 08:24:42;;;;;;;8.50;4.15;;;16.90;54.90;;;;;;5053008;28;20389;-75
2021/10/08 08:27:08;;;;;;;7.97;3.55;;;16.90;54.80;;;;;;5052871;28;20033;-75
2021/10/08 08:29:33;;;;;;;8.45;3.55;;;16.90;55.10;;;;;;5052946;28;20040;-76
2021/10/08 08:31:59;;;;;;;7.45;4.22;;;16.90;54.60;;;;;;5051503;28;20557;-75
2021/10/08 08:34:26;;;;;;;6.32;3.45;;;16.90;55.70;;;;;;5052649;28;20036;-75
2021/10/08 08:36:52;;;;;;;9.95;3.75;;;16.90;55.40;;;;;;5052709;28;20079;-75
2021/10/08 08:39:19;;;;;;;6.80;3.30;;;16.90;54.50;;;;;;5052880;28;20033;-75
2021/10/08 08:41:46;;;;;;;9.60;3.70;;;16.90;54.90;;;;;;5051841;28;20036;-75
2021/10/08 08:44:11;;;;;;;7.82;3.30;;;16.90;55.30;;;;;;5052006;28;20033;-76
2021/10/08 08:46:37;;;;;;;10.63;3.40;;;16.90;55.30;;;;;;5053094;28;20386;-75
2021/10/08 08:49:04;;;;;;;6.43;3.40;;;16.90;55.10;;;;;;5052710;28;20033;-76
2021/10/08 08:51:31;;;;;;;8.30;3.67;;;16.90;55.20;;;;;;5052647;28;20029;-76
2021/10/08 08:53:57;;;;;;;8.60;3.38;;;16.90;55.20;;;;;;5051861;28;20032;-75
2021/10/08 08:56:25;;;;;;;14.48;3.80;;;16.90;55.10;;;;;;5052936;28;20188;-76
2021/10/08 08:59:02;;;;;;;10.70;3.40;;;16.90;55.30;;;;;;5052538;28;20033;-74
2021/10/08 09:01:28;;;;;;;5.65;3.05;;;16.90;56.30;;;;;;5055301;28;20116;-76
2021/10/08 09:04:08;;;;;;;8.48;3.40;;;16.90;56.40;;;;;;5056571;28;20114;-75
2021/10/08 09:06:38;;;;;;;7.03;3.50;;;16.90;56.60;;;;;;5056804;28;20108;-75
2021/10/08 09:09:18;;;;;;;10.93;3.28;;;16.90;56.60;;;;;;5056752;28;20025;-76
2021/10/08 09:11:45;;;;;;;8.32;3.17;;;16.90;55.80;;;;;;5056046;28;20029;-76
2021/10/08 09:14:21;;;;;;;7.07;3.17;;;16.90;55.80;;;;;;5056426;28;20096;-76
2021/10/08 09:17:07;;;;;;;11.93;2.92;;;16.90;56.30;;;;;;5056550;28;20054;-76
2021/10/08 09:19:47;;;;;;;9.48;2.95;;;16.90;56.70;;;;;;5055956;28;20021;-74
2021/10/08 09:22:15;;;;;;;9.75;3.33;;;16.90;56.00;;;;;;5056549;28;20028;-76
2021/10/08 09:24:41;;;;;;;4.72;3.28;;;16.90;56.20;;;;;;5056115;28;20504;-76
2021/10/08 09:27:12;;;;;;;6.32;3.17;;;16.90;56.30;;;;;;5056439;28;20088;-75
2021/10/08 09:29:47;;;;;;;7.05;3.08;;;16.90;56.50;;;;;;5056368;28;20443;-75
2021/10/08 09:32:12;;;;;;;7.80;3.28;;;16.90;55.90;;;;;;5056489;28;20025;-76
2021/10/08 09:34:38;;;;;;;8.77;3.15;;;16.90;56.00;;;;;;5056364;28;20035;-76
2021/10/08 09:37:06;;;;;;;8.30;3.33;;;16.90;56.40;;;;;;5056662;28;20018;-76
2021/10/08 09:39:33;;;;;;;7.90;3.08;;;16.90;56.60;;;;;;5056468;28;20538;-76
2021/10/08 09:42:11;;;;;;;4.40;3.00;;;16.80;56.70;;;;;;5056550;28;20017;-75
2021/10/08 09:44:46;;;;;;;7.75;2.70;;;16.80;56.30;;;;;;5056367;28;20033;-75
2021/10/08 09:47:20;;;;;;;8.80;2.95;;;16.90;56.20;;;;;;5056018;28;20057;-75
2021/10/08 09:49:48;;;;;;;5.13;2.63;;;16.90;55.70;;;;;;5055860;28;20033;-76
2021/10/08 09:52:19;;;;;;;6.43;2.70;;;16.90;55.80;;;;;;5055415;28;20466;-73
2021/10/08 09:54:54;;;;;;;6.28;2.70;;;16.90;55.90;;;;;;5054787;28;20051;-74
2021/10/08 09:57:21;;;;;;;5.63;2.70;;;16.90;56.20;;;;;;5054990;28;20095;-76
2021/10/08 09:59:52;;;;;;;4.38;2.35;;;16.90;56.20;;;;;;5055800;28;20477;-74
2021/10/08 10:02:21;;;;;;;9.65;2.97;;;16.90;56.30;;;;;;5056026;28;20056;-76
2021/10/08 10:04:55;;;;;;;6.78;2.15;;;17.00;55.90;;;;;;5055445;28;20541;-75
2021/10/08 10:07:23;;;;;;;4.88;2.38;;;16.90;55.90;;;;;;5055986;28;20021;-75
2021/10/08 10:09:50;;;;;;;5.13;1.92;;;16.90;55.40;;;;;;5055366;28;20086;-76
2021/10/08 10:12:19;;;;;;;2.67;1.85;;;16.90;55.70;;;;;;5053947;28;20428;-75
2021/10/08 10:14:46;;;;;;;4.82;2.00;;;16.90;55.80;;;;;;5054718;28;20025;-74
2021/10/08 10:17:13;;;;;;;6.20;1.80;;;16.90;56.30;;;;;;5054620;28;20477;-74
2021/10/08 10:19:45;;;;;;;3.35;1.92;;;16.90;56.90;;;;;;5063054;28;20024;-73
2021/10/08 10:22:19;;;;;;;2.80;1.90;;;16.90;56.90;;;;;;5075030;28;20029;-73
2021/10/08 10:24:48;;;;;;;2.30;1.77;;;16.90;56.60;;;;;;5074670;28;20021;-76
2021/10/08 10:27:16;;;;;;;3.78;1.58;;;16.90;57.10;;;;;;5074534;28;20028;-73
2021/10/08 10:29:45;;;;;;;3.38;1.60;;;16.90;56.50;;;;;;5074320;28;20090;-73
2021/10/08 10:32:12;;;;;;;3.38;1.55;;;16.90;57.10;;;;;;5074426;28;20032;-75
2021/10/08 10:34:39;;;;;;;4.57;1.70;;;16.90;56.60;;;;;;5074421;28;20028;-74
2021/10/08 10:37:07;;;;;;;2.90;1.40;;;16.90;56.60;;;;;;5074455;28;20477;-72
2021/10/08 10:39:33;;;;;;;3.03;1.40;;;16.90;56.30;;;;;;5072328;28;20473;-72
2021/10/08 10:42:02;;;;;;;1.55;1.30;;;16.90;56.20;;;;;;5073458;28;20021;-74
2021/10/08 10:44:33;;;;;;;2.13;1.25;;;16.90;56.50;;;;;;5074559;28;20046;-76
2021/10/08 10:47:32;;;;;;;3.05;1.50;;;16.90;56.50;;;;;;5074790;28;20025;-75
2021/10/08 10:50:14;;;;;;;1.63;1.13;;;16.80;56.40;;;;;;5070570;28;20123;-75
2021/10/08 10:53:00;;;;;;;4.13;1.40;;;16.80;56.80;;;;;;5074591;28;20028;-75
2021/10/08 10:55:32;;;;;;;3.53;1.30;;;16.80;56.90;;;;;;5074303;28;20040;-75
2021/10/08 10:57:59;;;;;;;1.63;1.20;;;16.80;56.90;;;;;;5073214;28;20077;-75
2021/10/08 11:00:30;;;;;;;1.77;1.27;;;16.80;56.90;;;;;;5071904;28;20159;-74
2021/10/08 11:03:19;;;;;;;3.33;1.35;;;16.80;56.90;;;;;;5071362;28;20032;-76
2021/10/08 11:06:11;;;;;;;4.10;1.60;;;16.80;57.20;;;;;;5071898;28;20504;-80
2021/10/08 11:09:07;;;;;;;3.03;1.37;;;16.80;57.60;;;;;;5072715;28;20040;-80
2021/10/08 11:11:33;;;;;;;2.13;1.25;;;16.90;57.30;;;;;;5074387;28;20606;-80
2021/10/08 11:14:19;;;;;;;2.17;1.38;;;16.90;57.40;;;;;;5074399;28;20032;-81
2021/10/08 11:16:45;;;;;;;4.13;1.45;;;16.90;58.00;;;;;;5074580;28;20035;-84
2021/10/08 11:19:39;;;;;;;3.38;1.30;;;17.00;57.20;;;;;;5074567;28;20056;-91
2021/10/08 11:22:06;;;;;;;2.90;1.55;;;17.00;56.80;;;;;;5072152;28;20036;-86
2021/10/08 11:24:32;;;;;;;2.50;1.50;;;17.00;56.50;;;;;;5070838;28;20024;-85
2021/10/08 11:27:02;;;;;;;3.47;1.60;;;17.10;56.60;;;;;;5072449;28;20094;-88
2021/10/08 11:29:33;;;;;;;2.70;1.80;;;17.10;56.60;;;;;;5072761;28;20040;-80
2021/10/08 11:32:07;;;;;;;2.65;1.40;;;17.20;56.50;;;;;;5073893;28;20111;-83
2021/10/08 11:34:45;;;;;;;3.83;1.15;;;17.20;55.90;;;;;;5074401;28;20065;-87
2021/10/08 11:37:11;;;;;;;5.28;1.33;;;17.20;56.00;;;;;;5074467;28;20075;-86
2021/10/08 11:39:43;;;;;;;4.20;1.38;;;17.20;55.50;;;;;;5073253;28;20675;-80
2021/10/08 11:42:11;;;;;;;3.20;1.50;;;17.20;55.30;;;;;;5073334;28;20055;-77
2021/10/08 11:44:42;;;;;;;3.65;1.13;;;17.20;55.30;;;;;;5073971;28;20124;-78
2021/10/08 11:52:28;;;;;;;3.83;1.40;;;17.20;55.90;;;;;;5073919;28;20039;-81
2021/10/08 11:55:19;;;;;;;6.55;1.35;;;17.20;55.60;;;;;;5073103;28;20477;-81
2021/10/08 11:57:58;;;;;;;3.25;1.52;;;17.20;56.00;;;;;;5073237;28;20028;-77
2021/10/08 12:00:28;;;;;;;1.80;1.23;;;17.10;55.70;;;;;;5072885;28;20463;-78
2021/10/08 12:03:06;;;;;;;6.00;1.48;;;17.10;56.40;;;;;;5073434;28;20056;-81
2021/10/08 12:05:47;;;;;;;3.63;1.48;;;17.10;56.30;;;;;;5073339;28;20104;-85
2021/10/08 12:08:17;;;;;;;5.28;1.40;;;17.10;56.30;;;;;;5073083;28;20420;-84
2021/10/08 12:11:02;;;;;;;2.10;1.30;;;17.10;56.30;;;;;;5073095;28;20032;-80
2021/10/08 12:13:37;;;;;;;4.28;1.60;;;17.10;56.60;;;;;;5072706;28;20514;-74
2021/10/08 12:16:03;;;;;;;1.88;1.40;;;17.00;56.30;;;;;;5072636;28;20056;-81
2021/10/08 12:18:29;;;;;;;2.88;1.27;;;17.00;56.40;;;;;;5073251;28;20020;-77
2021/10/08 12:21:30;;;;;;;3.03;1.35;;;17.00;56.30;;;;;;5073068;28;20074;-80
2021/10/08 12:24:15;;;;;;;3.50;1.83;;;17.00;56.50;;;;;;5058981;28;20025;-78
2021/10/08 12:26:55;;;;;;;2.13;1.30;;;17.10;56.50;;;;;;5068568;28;20105;-79
2021/10/08 12:29:21;;;;;;;4.05;1.33;;;17.10;57.00;;;;;;5072491;28;20037;-79
2021/10/08 12:31:58;;;;;;;3.08;1.55;;;17.10;57.30;;;;;;5072897;28;20155;-79
2021/10/08 12:34:41;;;;;;;2.63;1.27;;;17.10;57.70;;;;;;5072265;28;20448;-79
2021/10/08 12:37:10;;;;;;;3.00;1.52;;;17.10;56.80;;;;;;5073396;28;20040;-79
2021/10/08 12:39:39;;;;;;;2.75;1.35;;;17.10;56.60;;;;;;5072981;28;20025;-79
2021/10/08 12:42:17;;;;;;;2.22;1.60;;;17.10;56.40;;;;;;5072827;28;20021;-80
2021/10/08 12:44:49;;;;;;;4.10;1.60;;;17.20;56.80;;;;;;5072833;28;20032;-81
2021/10/08 12:47:18;;;;;;;3.37;1.50;;;17.10;56.80;;;;;;5072676;28;20025;-81
2021/10/08 12:49:55;;;;;;;2.50;1.40;;;17.20;56.30;;;;;;5072703;28;20037;-81
2021/10/08 12:52:39;;;;;;;3.05;1.48;;;17.20;55.70;;;;;;5072287;28;20099;-79
2021/10/08 12:55:11;;;;;;;2.88;1.30;;;17.20;56.20;;;;;;5071710;28;20481;-79
2021/10/08 12:57:57;;;;;;;5.45;1.40;;;17.20;56.10;;;;;;5070998;28;20055;-77